Time;durP1;ratioP1;P1;durP2;ratioP2;P2;SDS_P1;SDS_P2;PMS_P1;PMS_P2;Temp;Humidity;BMP_temperature;BMP_pressure;BME280_temperature;BME280_humidity;BME280_pressure;Samples;Min_cycle;Max_cycle;Signal;HPM_P1;HPM_P2
2023/08/07 00:02:07;;;;;;;;;;;;;;;21.67;58.73;99809.44;5062529;28;4026;-66
2023/08/07 00:04:33;;;;;;;;;;;;;;;21.68;58.85;99802.25;5061803;28;4059;-67
2023/08/07 00:07:00;;;;;;;;;;;;;;;21.67;58.89;99803.69;5062243;28;4083;-66
2023/08/07 00:09:26;;;;;;;;;;;;;;;21.68;58.83;99796.50;5062287;28;4337;-66
2023/08/07 00:11:53;;;;;;;;;;;;;;;21.68;58.34;99793.59;5061826;28;4113;-66
2023/08/07 00:14:19;;;;;;;;;;;;;;;21.68;58.91;99799.38;5062683;28;4009;-66
2023/08/07 00:16:46;;;;;;;;;;;;;;;21.69;58.63;99808.75;5060863;28;4133;-66
2023/08/07 00:19:12;;;;;;;;;;;;;;;21.68;58.79;99805.13;5061852;28;4061;-66
2023/08/07 00:21:39;;;;;;;;;;;;;;;21.66;58.65;99802.19;5061974;28;3956;-66
2023/08/07 00:24:06;;;;;;;;;;;;;;;21.67;58.66;99800.03;5061791;28;4230;-66
2023/08/07 00:26:32;;;;;;;;;;;;;;;21.68;58.40;99805.13;5061944;28;4127;-66
2023/08/07 00:28:59;;;;;;;;;;;;;;;21.66;58.82;99790.69;5047810;28;4417;-66
2023/08/07 00:31:25;;;;;;;;;;;;;;;21.66;58.63;99790.69;5061483;28;4275;-66
2023/08/07 00:33:54;;;;;;;;;;;;;;;21.67;58.74;99800.03;5043830;28;4229;-66
2023/08/07 00:36:21;;;;;;;;;;;;;;;21.67;58.60;99797.16;5038590;28;4074;-66
2023/08/07 00:38:48;;;;;;;;;;;;;;;21.67;58.85;99792.16;5041814;28;4225;-66
2023/08/07 00:41:16;;;;;;;;;;;;;;;21.66;58.64;99789.94;5041448;28;4171;-66
2023/08/07 00:43:42;;;;;;;;;;;;;;;21.66;58.60;99784.91;5040779;28;4329;-65
2023/08/07 00:46:08;;;;;;;;;;;;;;;21.66;58.72;99787.06;5041863;28;4118;-66
2023/08/07 00:48:35;;;;;;;;;;;;;;;21.67;58.63;99783.50;5039898;28;4173;-66
2023/08/07 00:51:01;;;;;;;;;;;;;;;21.66;58.47;99776.28;5040615;28;3932;-66
2023/08/07 00:53:28;;;;;;;;;;;;;;;21.66;58.79;99773.38;5056450;28;4378;-66
2023/08/07 00:55:54;;;;;;;;;;;;;;;21.66;58.81;99779.16;5039460;28;4093;-66
2023/08/07 00:58:21;;;;;;;;;;;;;;;21.65;58.69;99780.59;5041597;28;4152;-65
2023/08/07 01:00:47;;;;;;;;;;;;;;;21.65;58.69;99777.69;5041698;28;4153;-78
2023/08/07 01:03:14;;;;;;;;;;;;;;;21.65;58.71;99776.97;5047251;28;4120;-77
2023/08/07 01:05:40;;;;;;;;;;;;;;;21.65;58.49;99774.09;5040537;28;4009;-78
2023/08/07 01:08:07;;;;;;;;;;;;;;;21.65;58.54;99777.69;5041098;28;4092;-78
2023/08/07 01:10:46;;;;;;;;;;;;;;;21.65;58.65;99777.69;5040150;28;3974;-79
2023/08/07 01:13:16;;;;;;;;;;;;;;;21.66;58.69;99784.19;5039999;28;4477;-78
2023/08/07 01:15:42;;;;;;;;;;;;;;;21.65;58.53;99783.47;5039757;28;5125;-75
2023/08/07 01:18:09;;;;;;;;;;;;;;;21.66;58.49;99789.94;5039952;28;4041;-78
2023/08/07 01:20:35;;;;;;;;;;;;;;;21.65;58.60;99776.97;5039447;28;4141;-77
2023/08/07 01:23:01;;;;;;;;;;;;;;;21.65;58.52;99774.09;5047869;28;3904;-78
2023/08/07 01:25:29;;;;;;;;;;;;;;;21.64;58.57;99770.47;5041150;28;4057;-79
2023/08/07 01:28:02;;;;;;;;;;;;;;;21.64;58.50;99770.47;5038606;28;3915;-78
2023/08/07 01:30:33;;;;;;;;;;;;;;;21.64;58.42;99770.47;5035539;28;4395;-78
2023/08/07 01:33:09;;;;;;;;;;;;;;;21.63;58.41;99766.13;5053927;28;4148;-78
2023/08/07 01:35:36;;;;;;;;;;;;;;;21.64;58.65;99764.69;5053585;28;4494;-77
2023/08/07 01:38:02;;;;;;;;;;;;;;;21.65;58.36;99774.81;5059456;28;3939;-78
2023/08/07 01:40:29;;;;;;;;;;;;;;;21.64;58.73;99764.69;5032538;28;4007;-78
2023/08/07 01:42:55;;;;;;;;;;;;;;;21.64;58.74;99763.97;5030342;28;4308;-78
2023/08/07 01:45:25;;;;;;;;;;;;;;;21.64;58.46;99761.81;5032708;28;4341;-78
2023/08/07 01:47:52;;;;;;;;;;;;;;;21.63;58.36;99754.59;5049465;28;4227;-78
2023/08/07 01:50:19;;;;;;;;;;;;;;;21.63;58.66;99760.38;5060644;28;3935;-78
2023/08/07 01:52:49;;;;;;;;;;;;;;;21.63;58.28;99751.72;5032741;28;4141;-79
2023/08/07 01:55:16;;;;;;;;;;;;;;;21.64;58.63;99758.22;5034552;28;4282;-78
2023/08/07 01:57:49;;;;;;;;;;;;;;;21.63;58.74;99760.38;5034446;28;4324;-78
2023/08/07 02:00:16;;;;;;;;;;;;;;;21.63;58.72;99757.47;5058344;28;4059;-78
2023/08/07 02:02:42;;;;;;;;;;;;;;;21.63;58.67;99760.38;5059263;28;4302;-78
2023/08/07 02:05:08;;;;;;;;;;;;;;;21.64;58.67;99758.22;5060725;28;4047;-78
2023/08/07 02:07:35;;;;;;;;;;;;;;;21.64;58.65;99758.94;5041216;28;4094;-78
2023/08/07 02:10:02;;;;;;;;;;;;;;;21.62;58.60;99750.25;5041078;28;4940;-78
2023/08/07 02:12:31;;;;;;;;;;;;;;;21.63;58.44;99760.38;5060615;28;5078;-78
2023/08/07 02:14:59;;;;;;;;;;;;;;;21.63;58.64;99763.25;5057961;28;4045;-79
2023/08/07 02:17:25;;;;;;;;;;;;;;;21.64;58.41;99770.47;5036722;28;4423;-78
2023/08/07 02:19:52;;;;;;;;;;;;;;;21.63;58.43;99766.13;5031344;28;4046;-79
2023/08/07 02:22:18;;;;;;;;;;;;;;;21.62;58.37;99761.75;5058495;28;4030;-77
2023/08/07 02:24:44;;;;;;;;;;;;;;;21.62;58.39;99761.75;5060849;28;4012;-78
2023/08/07 02:27:11;;;;;;;;;;;;;;;21.62;58.62;99767.53;5059254;28;3996;-78
2023/08/07 02:29:37;;;;;;;;;;;;;;;21.62;58.37;99767.53;5047607;28;4021;-71
2023/08/07 02:32:04;;;;;;;;;;;;;;;21.62;58.50;99761.75;5043475;28;4876;-78
2023/08/07 02:34:30;;;;;;;;;;;;;;;21.63;58.46;99762.50;5049088;28;4403;-78
2023/08/07 02:36:57;;;;;;;;;;;;;;;21.61;58.45;99771.84;5033713;28;3894;-77
2023/08/07 02:39:24;;;;;;;;;;;;;;;21.61;58.46;99777.59;5031013;28;4283;-78
2023/08/07 02:41:50;;;;;;;;;;;;;;;21.62;58.35;99784.09;5059110;28;3988;-78
2023/08/07 02:44:20;;;;;;;;;;;;;;;21.61;58.75;99777.59;5041606;28;5064;-78
2023/08/07 02:46:47;;;;;;;;;;;;;;;21.61;58.57;99776.88;5029976;28;4879;-78
2023/08/07 02:49:13;;;;;;;;;;;;;;;21.61;58.48;99777.59;5061270;28;3936;-78
2023/08/07 02:51:39;;;;;;;;;;;;;;;21.61;58.72;99774.72;5058350;28;4148;-77
2023/08/07 02:54:06;;;;;;;;;;;;;;;21.62;58.41;99778.31;5014442;28;3944;-78
2023/08/07 02:56:32;;;;;;;;;;;;;;;21.62;58.38;99784.09;5064138;28;4037;-79
2023/08/07 02:59:01;;;;;;;;;;;;;;;21.62;58.73;99775.44;5018949;28;3978;-78
2023/08/07 03:01:27;;;;;;;;;;;;;;;21.60;58.79;99776.16;5037493;28;4359;-78
2023/08/07 03:03:54;;;;;;;;;;;;;;;21.59;58.48;99777.53;5063590;28;4191;-78
2023/08/07 03:06:20;;;;;;;;;;;;;;;21.60;58.67;99784.78;5054144;28;3906;-78
2023/08/07 03:08:47;;;;;;;;;;;;;;;21.61;58.71;99794.88;5045302;28;4190;-78
2023/08/07 03:11:13;;;;;;;;;;;;;;;21.60;58.52;99793.44;5044833;28;4299;-78
2023/08/07 03:13:39;;;;;;;;;;;;;;;21.60;58.47;99790.53;5062025;28;4245;-78
2023/08/07 03:16:07;;;;;;;;;;;;;;;21.61;58.55;99789.13;5051715;28;4154;-78
2023/08/07 03:18:33;;;;;;;;;;;;;;;21.60;58.51;99792.66;5061294;28;4603;-78
2023/08/07 03:21:00;;;;;;;;;;;;;;;21.60;58.34;99790.53;5062688;28;4523;-78
2023/08/07 03:23:27;;;;;;;;;;;;;;;21.60;58.57;99793.44;5034035;28;4150;-77
2023/08/07 03:26:02;;;;;;;;;;;;;;;21.60;58.76;99784.78;5036915;28;4349;-78
2023/08/07 03:28:46;;;;;;;;;;;;;;;21.60;58.65;99798.44;5061186;28;4153;-77
2023/08/07 03:31:12;;;;;;;;;;;;;;;21.60;58.71;99799.19;5062134;28;4702;-78
2023/08/07 03:33:39;;;;;;;;;;;;;;;21.59;58.65;99791.94;5045468;28;4005;-77
2023/08/07 03:36:07;;;;;;;;;;;;;;;21.59;58.58;99799.88;5022725;28;4090;-78
2023/08/07 03:38:33;;;;;;;;;;;;;;;21.60;58.45;99796.31;5061673;28;4114;-78
2023/08/07 03:40:59;;;;;;;;;;;;;;;21.60;58.71;99804.19;5062686;28;4284;-78
2023/08/07 03:43:27;;;;;;;;;;;;;;;21.59;58.38;99817.88;5045295;28;4237;-78
2023/08/07 03:45:55;;;;;;;;;;;;;;;21.59;58.77;99809.22;5020288;28;4023;-79
2023/08/07 03:48:25;;;;;;;;;;;;;;;21.60;58.60;99798.44;5038474;28;3995;-78
2023/08/07 03:50:52;;;;;;;;;;;;;;;21.59;58.76;99806.34;5062508;28;4389;-76
2023/08/07 03:53:19;;;;;;;;;;;;;;;21.59;58.56;99806.34;5062965;28;4340;-78
2023/08/07 03:55:51;;;;;;;;;;;;;;;21.59;58.64;99815.00;5048701;28;4096;-78
2023/08/07 03:58:20;;;;;;;;;;;;;;;21.59;58.40;99817.88;5045157;28;4178;-77
2023/08/07 04:00:47;;;;;;;;;;;;;;;21.59;58.53;99817.16;5062093;28;4279;-77
2023/08/07 04:03:13;;;;;;;;;;;;;;;21.59;58.52;99820.75;5016994;28;4080;-78
2023/08/07 04:05:40;;;;;;;;;;;;;;;21.58;58.61;99807.03;5059603;28;4269;-78
2023/08/07 04:08:06;;;;;;;;;;;;;;;21.58;58.77;99807.78;5062881;28;4176;-78
2023/08/07 04:10:33;;;;;;;;;;;;;;;21.59;58.35;99811.38;5044590;28;3902;-78
2023/08/07 04:12:59;;;;;;;;;;;;;;;21.58;58.65;99816.41;5061804;28;4117;-78
2023/08/07 04:15:26;;;;;;;;;;;;;;;21.58;58.53;99818.53;5060387;28;4073;-77
2023/08/07 04:17:53;;;;;;;;;;;;;;;21.56;58.67;99804.13;5044252;28;4320;-78
2023/08/07 04:20:20;;;;;;;;;;;;;;;21.58;58.62;99813.53;5062097;28;4008;-77
2023/08/07 04:22:46;;;;;;;;;;;;;;;21.57;58.51;99814.94;5032303;28;4200;-78
2023/08/07 04:25:13;;;;;;;;;;;;;;;21.58;58.51;99813.53;5060767;28;4656;-78
2023/08/07 04:27:39;;;;;;;;;;;;;;;21.58;58.62;99822.19;5059976;28;4475;-78
2023/08/07 04:30:06;;;;;;;;;;;;;;;21.58;58.40;99818.53;5043362;28;4022;-78
2023/08/07 04:32:32;;;;;;;;;;;;;;;21.58;58.61;99818.53;5062664;28;3979;-78
2023/08/07 04:34:59;;;;;;;;;;;;;;;21.58;58.46;99816.41;5061850;28;4048;-78
2023/08/07 04:37:25;;;;;;;;;;;;;;;21.57;58.76;99817.81;5061556;28;4329;-78
2023/08/07 04:39:52;;;;;;;;;;;;;;;21.58;58.69;99818.53;5034823;28;4084;-78
2023/08/07 04:42:18;;;;;;;;;;;;;;;21.58;58.38;99830.06;5061682;28;3974;-78
2023/08/07 04:44:45;;;;;;;;;;;;;;;21.57;58.45;99826.47;5059897;28;4088;-78
2023/08/07 04:47:11;;;;;;;;;;;;;;;21.57;58.53;99820.69;5060883;28;4009;-78
2023/08/07 04:49:37;;;;;;;;;;;;;;;21.57;58.53;99829.34;5061575;28;3923;-78
2023/08/07 04:52:04;;;;;;;;;;;;;;;21.56;58.60;99819.25;5035652;28;4392;-78
2023/08/07 04:54:49;;;;;;;;;;;;;;;21.57;58.50;99823.59;5060196;28;4044;-78
2023/08/07 04:57:16;;;;;;;;;;;;;;;21.57;58.50;99829.34;5062434;28;3889;-78
2023/08/07 04:59:42;;;;;;;;;;;;;;;21.57;58.38;99822.84;5060640;28;3938;-78
2023/08/07 05:02:09;;;;;;;;;;;;;;;21.57;58.63;99829.34;5060929;28;4073;-78
2023/08/07 05:04:35;;;;;;;;;;;;;;;21.57;58.41;99834.38;5036677;28;4194;-78
2023/08/07 05:07:02;;;;;;;;;;;;;;;21.57;58.41;99835.09;5061339;28;4052;-78
2023/08/07 05:09:28;;;;;;;;;;;;;;;21.57;58.56;99835.09;5060307;28;4081;-78
2023/08/07 05:11:54;;;;;;;;;;;;;;;21.56;58.39;99833.66;5061249;28;4119;-77
2023/08/07 05:14:21;;;;;;;;;;;;;;;21.56;58.53;99839.41;5043678;28;4096;-77
2023/08/07 05:16:47;;;;;;;;;;;;;;;21.57;58.66;99835.09;5058730;28;4340;-78
2023/08/07 05:19:14;;;;;;;;;;;;;;;21.56;58.49;99842.28;5061193;28;4033;-78
2023/08/07 05:21:40;;;;;;;;;;;;;;;21.56;58.73;99839.41;5060985;28;4552;-77
2023/08/07 05:24:07;;;;;;;;;;;;;;;21.56;58.73;99838.69;5032559;28;4584;-78
2023/08/07 05:26:33;;;;;;;;;;;;;;;21.55;58.34;99843.69;5060267;28;4515;-77
2023/08/07 05:28:59;;;;;;;;;;;;;;;21.55;58.40;99840.81;5059321;28;4340;-78
2023/08/07 05:31:26;;;;;;;;;;;;;;;21.56;58.50;99838.69;5060711;28;4069;-78
2023/08/07 05:33:55;;;;;;;;;;;;;;;21.55;58.38;99843.69;5043270;28;4020;-78
2023/08/07 05:36:21;;;;;;;;;;;;;;;21.55;58.41;99843.69;5060281;28;4048;-78
2023/08/07 05:38:47;;;;;;;;;;;;;;;21.54;58.32;99845.84;5042201;28;4108;-78
2023/08/07 05:41:14;;;;;;;;;;;;;;;21.56;58.55;99844.44;5060561;28;4384;-78
2023/08/07 05:43:40;;;;;;;;;;;;;;;21.56;58.56;99853.81;5060428;28;4073;-78
2023/08/07 05:46:07;;;;;;;;;;;;;;;21.55;58.65;99849.44;5058851;28;4100;-78
2023/08/07 05:48:33;;;;;;;;;;;;;;;21.55;58.66;99849.44;5059746;28;4271;-78
2023/08/07 05:51:00;;;;;;;;;;;;;;;21.55;58.40;99855.22;5059618;28;4260;-77
2023/08/07 05:53:26;;;;;;;;;;;;;;;21.55;58.37;99843.69;5032972;28;4864;-77
2023/08/07 05:55:52;;;;;;;;;;;;;;;21.55;58.44;99849.44;5060719;28;4535;-76
2023/08/07 05:58:19;;;;;;;;;;;;;;;21.55;58.29;99855.22;5058547;28;3925;-77
2023/08/07 06:00:46;;;;;;;;;;;;;;;21.55;58.37;99860.97;5032654;28;4046;-77
2023/08/07 06:03:12;;;;;;;;;;;;;;;21.54;58.62;99859.53;5060959;28;3966;-77
2023/08/07 06:05:39;;;;;;;;;;;;;;;21.55;58.37;99855.22;5058561;28;4234;-77
2023/08/07 06:08:05;;;;;;;;;;;;;;;21.54;58.29;99854.47;5018938;28;4373;-78
2023/08/07 06:10:32;;;;;;;;;;;;;;;21.55;58.25;99855.22;5060943;28;4944;-78
2023/08/07 06:12:58;;;;;;;;;;;;;;;21.54;58.59;99857.38;5034275;28;4272;-78
2023/08/07 06:15:24;;;;;;;;;;;;;;;21.53;58.29;99850.16;5059893;28;3914;-77
2023/08/07 06:17:51;;;;;;;;;;;;;;;21.55;58.67;99860.97;5050011;28;4583;-77
2023/08/07 06:20:18;;;;;;;;;;;;;;;21.56;58.33;99867.50;5034453;28;4114;-78
2023/08/07 06:22:44;;;;;;;;;;;;;;;21.55;58.29;99860.97;5041614;28;4086;-77
2023/08/07 06:25:11;;;;;;;;;;;;;;;21.54;58.28;99871.78;5059604;28;4522;-77
2023/08/07 06:27:37;;;;;;;;;;;;;;;21.55;58.37;99878.25;5060190;28;4314;-78
2023/08/07 06:30:04;;;;;;;;;;;;;;;21.55;58.58;99878.25;5065368;28;4027;-78
2023/08/07 06:32:30;;;;;;;;;;;;;;;21.55;58.39;99881.13;5065902;28;4351;-78
2023/08/07 06:34:56;;;;;;;;;;;;;;;21.55;58.29;99895.53;5065674;28;4097;-78
2023/08/07 06:37:23;;;;;;;;;;;;;;;21.55;58.49;99901.31;5066674;28;3946;-78
2023/08/07 06:39:49;;;;;;;;;;;;;;;21.55;58.52;99892.66;5066122;28;4160;-78
2023/08/07 06:42:16;;;;;;;;;;;;;;;21.56;58.37;99905.66;5065822;28;4196;-78
2023/08/07 06:44:43;;;;;;;;;;;;;;;21.55;58.30;99901.31;5056198;28;4111;-76
2023/08/07 06:47:10;;;;;;;;;;;;;;;21.54;58.34;99903.44;5066024;28;4180;-78
2023/08/07 06:49:36;;;;;;;;;;;;;;;21.55;58.19;99895.53;5064598;28;4055;-77
2023/08/07 06:52:03;;;;;;;;;;;;;;;21.55;58.20;99901.31;5065886;28;3976;-78
2023/08/07 06:54:29;;;;;;;;;;;;;;;21.55;58.58;99907.06;5065560;28;4545;-77
2023/08/07 06:56:56;;;;;;;;;;;;;;;21.55;58.45;99901.31;5065329;28;4406;-78
2023/08/07 06:59:23;;;;;;;;;;;;;;;21.56;58.54;99902.78;5038331;28;4317;-78
2023/08/07 07:01:50;;;;;;;;;;;;;;;21.56;58.48;99897.03;5035343;28;4249;-65
2023/08/07 07:04:16;;;;;;;;;;;;;;;21.56;58.47;99902.06;5066971;28;4170;-69
2023/08/07 07:06:43;;;;;;;;;;;;;;;21.54;58.41;99906.34;5065402;28;4109;-72
2023/08/07 07:09:09;;;;;;;;;;;;;;;21.56;58.44;99907.81;5067184;28;4611;-72
2023/08/07 07:11:36;;;;;;;;;;;;;;;21.56;58.37;99910.69;5065842;28;4111;-72
2023/08/07 07:14:02;;;;;;;;;;;;;;;21.56;58.52;99919.34;5066216;28;4439;-72
2023/08/07 07:16:28;;;;;;;;;;;;;;;21.56;58.54;99920.06;5065837;28;4243;-72
2023/08/07 07:18:58;;;;;;;;;;;;;;;21.56;58.22;99920.06;5066328;28;4557;-72
2023/08/07 07:21:24;;;;;;;;;;;;;;;21.56;58.44;99920.06;5066409;28;4286;-72
2023/08/07 07:23:51;;;;;;;;;;;;;;;21.56;58.45;99920.06;5064508;28;4250;-72
2023/08/07 07:26:17;;;;;;;;;;;;;;;21.57;58.27;99926.56;5067445;28;4162;-72
2023/08/07 07:28:44;;;;;;;;;;;;;;;21.54;58.29;99929.38;5065372;28;4026;-71
2023/08/07 07:31:11;;;;;;;;;;;;;;;21.56;58.35;99925.09;5066941;28;4163;-72
2023/08/07 07:33:39;;;;;;;;;;;;;;;21.56;58.44;99925.81;5065166;28;4048;-66
2023/08/07 07:36:07;;;;;;;;;;;;;;;21.55;58.34;99930.09;5065216;28;4178;-71
2023/08/07 07:38:33;;;;;;;;;;;;;;;21.54;58.12;99923.63;5065786;28;4208;-72
2023/08/07 07:40:59;;;;;;;;;;;;;;;21.55;58.36;99930.09;5064513;28;4035;-72
2023/08/07 07:43:26;;;;;;;;;;;;;;;21.55;58.12;99935.88;5062385;28;4154;-72
2023/08/07 07:45:52;;;;;;;;;;;;;;;21.56;58.24;99930.84;5061995;28;4303;-72
2023/08/07 07:48:19;;;;;;;;;;;;;;;21.56;58.27;99931.59;5063039;28;4300;-72
2023/08/07 07:50:45;;;;;;;;;;;;;;;21.56;58.43;99943.09;5062328;28;4082;-71
2023/08/07 07:53:12;;;;;;;;;;;;;;;21.56;58.38;99934.47;5063129;28;4020;-72
2023/08/07 07:55:38;;;;;;;;;;;;;;;21.56;58.28;99934.47;5062333;28;4132;-71
2023/08/07 07:58:04;;;;;;;;;;;;;;;21.56;58.11;99937.34;5063005;28;4106;-72
2023/08/07 08:00:31;;;;;;;;;;;;;;;21.56;58.30;99937.34;5063385;28;4019;-72
2023/08/07 08:02:57;;;;;;;;;;;;;;;21.57;58.41;99938.06;5061259;28;4149;-72
2023/08/07 08:05:24;;;;;;;;;;;;;;;21.56;58.38;99937.34;5062693;28;4113;-72
2023/08/07 08:07:50;;;;;;;;;;;;;;;21.56;58.27;99959.66;5061666;28;4084;-72
2023/08/07 08:10:17;;;;;;;;;;;;;;;21.58;58.28;99953.94;5061465;28;3961;-72
2023/08/07 08:12:43;;;;;;;;;;;;;;;21.56;58.34;99954.63;5060766;28;4273;-71
2023/08/07 08:15:10;;;;;;;;;;;;;;;21.57;58.35;99953.22;5061176;28;4295;-72
2023/08/07 08:17:36;;;;;;;;;;;;;;;21.57;58.30;99955.38;5062047;28;4432;-72
2023/08/07 08:20:03;;;;;;;;;;;;;;;21.56;58.42;99953.91;5061407;28;4224;-71
2023/08/07 08:22:29;;;;;;;;;;;;;;;21.56;58.23;99960.41;5061760;28;4104;-72
2023/08/07 08:24:56;;;;;;;;;;;;;;;21.57;58.16;99955.38;5063068;28;4125;-71
2023/08/07 08:27:22;;;;;;;;;;;;;;;21.56;58.43;99956.78;5062452;28;4015;-70
2023/08/07 08:29:49;;;;;;;;;;;;;;;21.56;58.45;99957.50;5060822;28;4194;-72
2023/08/07 08:32:15;;;;;;;;;;;;;;;21.56;58.20;99966.16;5061488;28;4113;-72
2023/08/07 08:34:41;;;;;;;;;;;;;;;21.57;58.33;99973.38;5061565;28;4073;-72
2023/08/07 08:37:10;;;;;;;;;;;;;;;21.58;58.46;99974.09;5061534;28;4138;-72
2023/08/07 08:39:37;;;;;;;;;;;;;;;21.57;58.17;99973.38;5062146;28;4086;-72
2023/08/07 08:42:03;;;;;;;;;;;;;;;21.57;58.07;99979.13;5060560;28;4714;-71
2023/08/07 08:44:30;;;;;;;;;;;;;;;21.57;58.33;99973.38;5061454;28;4106;-72
2023/08/07 08:46:56;;;;;;;;;;;;;;;21.57;58.35;99964.72;5060885;28;4075;-72
2023/08/07 08:49:30;;;;;;;;;;;;;;;21.56;58.25;99971.91;5033202;28;4345;-72
2023/08/07 08:51:56;;;;;;;;;;;;;;;21.57;58.44;99967.59;5060818;28;4090;-72
2023/08/07 08:54:23;;;;;;;;;;;;;;;21.56;58.35;99971.91;5031860;28;4264;-72
2023/08/07 08:56:49;;;;;;;;;;;;;;;21.57;58.32;99972.66;5032367;28;4163;-72
2023/08/07 08:59:18;;;;;;;;;;;;;;;21.57;58.37;99966.88;5061894;28;4157;-72
2023/08/07 09:01:45;;;;;;;;;;;;;;;21.56;58.38;99977.69;5032436;28;4091;-72
2023/08/07 09:04:11;;;;;;;;;;;;;;;21.57;58.29;99990.66;5060375;28;4004;-72
2023/08/07 09:06:37;;;;;;;;;;;;;;;21.58;58.35;99997.16;5031566;28;4066;-72
2023/08/07 09:09:04;;;;;;;;;;;;;;;21.58;58.17;99980.63;5061536;28;3991;-72
2023/08/07 09:11:30;;;;;;;;;;;;;;;21.57;58.11;99982.00;5031951;28;4264;-72
2023/08/07 09:13:57;;;;;;;;;;;;;;;21.57;58.35;99982.00;5058896;28;4105;-72
2023/08/07 09:16:25;;;;;;;;;;;;;;;21.57;58.30;99979.13;5061115;28;4135;-71
2023/08/07 09:18:52;;;;;;;;;;;;;;;21.57;58.29;99979.13;5035761;28;4179;-72
2023/08/07 09:21:18;;;;;;;;;;;;;;;21.57;58.32;99984.91;5035273;28;4210;-72
2023/08/07 09:23:45;;;;;;;;;;;;;;;21.57;58.37;99984.91;5014008;28;4159;-71
2023/08/07 09:26:12;;;;;;;;;;;;;;;21.58;58.14;99992.13;5058803;28;3983;-72
2023/08/07 09:28:38;;;;;;;;;;;;;;;21.58;58.41;99997.91;5060901;28;4001;-67
2023/08/07 09:31:09;;;;;;;;;;;;;;;21.58;58.37;99988.50;5061020;28;4095;-72
2023/08/07 09:33:36;;;;;;;;;;;;;;;21.58;58.14;100002.91;5058944;28;4326;-71
2023/08/07 09:36:02;;;;;;;;;;;;;;;21.57;58.34;99995.69;5060137;28;4185;-71
2023/08/07 09:38:30;;;;;;;;;;;;;;;21.56;58.24;99989.19;5060428;28;3991;-72
2023/08/07 09:40:59;;;;;;;;;;;;;;;21.57;58.38;99999.28;5059500;28;4056;-71
2023/08/07 09:43:25;;;;;;;;;;;;;;;21.56;58.16;99994.97;5060792;28;4126;-72
2023/08/07 09:45:52;;;;;;;;;;;;;;;21.57;58.35;99996.41;5059305;28;4361;-72
2023/08/07 09:48:25;;;;;;;;;;;;;;;21.58;58.42;100005.78;5059941;28;4019;-72
2023/08/07 09:50:51;;;;;;;;;;;;;;;21.58;58.24;100006.53;5059151;28;4153;-72
2023/08/07 09:53:18;;;;;;;;;;;;;;;21.57;58.33;100002.19;5059959;28;4062;-71
2023/08/07 09:55:44;;;;;;;;;;;;;;;21.57;58.35;100001.44;5036785;28;4069;-72
2023/08/07 09:58:12;;;;;;;;;;;;;;;21.57;58.13;99996.41;5059692;28;4086;-72
2023/08/07 10:00:38;;;;;;;;;;;;;;;21.58;58.29;100014.44;5058768;28;4299;-68
2023/08/07 10:03:04;;;;;;;;;;;;;;;21.58;58.44;100006.53;5032102;28;4090;-71
2023/08/07 10:05:31;;;;;;;;;;;;;;;21.57;58.30;99996.41;5059624;28;4118;-72
2023/08/07 10:07:57;;;;;;;;;;;;;;;21.58;58.28;100002.91;5041681;28;4069;-72
2023/08/07 10:10:25;;;;;;;;;;;;;;;21.58;57.95;100003.66;5031782;28;4022;-71
2023/08/07 10:12:51;;;;;;;;;;;;;;;21.58;58.36;99997.91;5059864;28;4087;-71
2023/08/07 10:15:18;;;;;;;;;;;;;;;21.58;58.15;100002.91;5059799;28;4079;-71
2023/08/07 10:17:45;;;;;;;;;;;;;;;21.58;58.30;100012.31;5058393;28;4212;-71
2023/08/07 10:20:12;;;;;;;;;;;;;;;21.57;58.21;100007.94;5060804;28;4001;-72
2023/08/07 10:22:38;;;;;;;;;;;;;;;21.58;58.24;100008.66;5042411;28;4037;-68
2023/08/07 10:25:04;;;;;;;;;;;;;;;21.59;58.24;100015.91;5060276;28;4229;-71
2023/08/07 10:27:32;;;;;;;;;;;;;;;21.58;58.02;100009.41;5032989;28;4146;-71
2023/08/07 10:29:58;;;;;;;;;;;;;;;21.58;58.17;100009.41;5059313;28;4144;-71
2023/08/07 10:32:25;;;;;;;;;;;;;;;21.58;58.35;100014.44;5059389;28;4029;-71
2023/08/07 10:34:51;;;;;;;;;;;;;;;21.58;57.98;100008.66;5030945;28;6465;-72
2023/08/07 10:37:36;;;;;;;;;;;;;;;21.58;58.33;100009.41;5060313;28;4137;-71
2023/08/07 10:40:03;;;;;;;;;;;;;;;21.58;58.31;100009.41;5042577;28;3960;-72
2023/08/07 10:42:49;;;;;;;;;;;;;;;21.57;58.14;100013.69;5059031;28;3991;-71
2023/08/07 10:45:17;;;;;;;;;;;;;;;21.58;58.03;100012.31;5058875;28;4272;-72
2023/08/07 10:47:43;;;;;;;;;;;;;;;21.58;57.93;100018.06;5059250;28;4087;-70
2023/08/07 10:50:09;;;;;;;;;;;;;;;21.59;58.27;100015.91;5059867;28;4081;-72
2023/08/07 10:52:38;;;;;;;;;;;;;;;21.59;58.21;100019.53;5059975;28;4262;-72
2023/08/07 10:55:12;;;;;;;;;;;;;;;21.59;58.31;100018.78;5059598;28;4028;-71
2023/08/07 10:57:39;;;;;;;;;;;;;;;21.59;58.27;100021.69;5059705;28;4129;-69
2023/08/07 11:00:07;;;;;;;;;;;;;;;21.58;58.01;100020.94;5041252;28;4003;-71
2023/08/07 11:02:36;;;;;;;;;;;;;;;21.59;57.96;100027.44;5035541;28;3971;-71
2023/08/07 11:05:03;;;;;;;;;;;;;;;21.59;57.92;100024.56;5032664;28;4165;-72
2023/08/07 11:07:30;;;;;;;;;;;;;;;21.59;58.30;100022.41;5059384;28;3983;-71
2023/08/07 11:09:56;;;;;;;;;;;;;;;21.58;58.00;100031.72;5058973;28;4192;-71
2023/08/07 11:12:26;;;;;;;;;;;;;;;21.60;57.92;100026.00;5042132;28;4032;-71
2023/08/07 11:14:56;;;;;;;;;;;;;;;21.57;58.19;100010.81;5060083;28;4195;-71
2023/08/07 11:17:24;;;;;;;;;;;;;;;21.58;58.19;100015.19;5060923;28;4170;-71
2023/08/07 11:19:50;;;;;;;;;;;;;;;21.58;58.08;100015.19;5051195;28;4629;-71
2023/08/07 11:22:17;;;;;;;;;;;;;;;21.59;57.99;100016.63;5062528;28;4092;-71
2023/08/07 11:24:43;;;;;;;;;;;;;;;21.60;58.32;100021.00;5062211;28;4194;-71
2023/08/07 11:27:09;;;;;;;;;;;;;;;21.59;57.87;100021.69;5064162;28;4100;-72
2023/08/07 11:29:36;;;;;;;;;;;;;;;21.58;58.36;100029.59;5061305;28;4242;-71
2023/08/07 11:32:02;;;;;;;;;;;;;;;21.58;58.19;100029.59;5060674;28;4156;-71
2023/08/07 11:34:29;;;;;;;;;;;;;;;21.59;58.14;100027.44;5062566;28;4104;-71
2023/08/07 11:36:57;;;;;;;;;;;;;;;21.59;58.22;100028.16;5062287;28;4262;-71
2023/08/07 11:39:24;;;;;;;;;;;;;;;21.59;58.06;100028.16;5063175;28;4123;-71
2023/08/07 11:41:52;;;;;;;;;;;;;;;21.58;57.99;100023.81;5062417;28;3953;-72
2023/08/07 11:44:18;;;;;;;;;;;;;;;21.58;57.97;100003.66;5062359;28;4123;-71
2023/08/07 11:46:45;;;;;;;;;;;;;;;21.58;58.03;100018.06;5062303;28;4046;-71
2023/08/07 11:49:12;;;;;;;;;;;;;;;21.58;57.95;100012.31;5062446;28;4061;-71
2023/08/07 11:51:38;;;;;;;;;;;;;;;21.58;58.26;100009.41;5062102;28;4515;-67
2023/08/07 11:54:04;;;;;;;;;;;;;;;21.59;58.18;100021.69;5061710;28;6440;-71
2023/08/07 11:56:31;;;;;;;;;;;;;;;21.60;58.04;100000.84;5062430;28;4366;-72
2023/08/07 11:58:57;;;;;;;;;;;;;;;21.59;58.28;100007.28;5062860;28;4102;-71
2023/08/07 12:01:24;;;;;;;;;;;;;;;21.58;57.99;99997.91;5061468;28;3990;-71
2023/08/07 12:03:54;;;;;;;;;;;;;;;21.58;57.88;99988.50;5061562;28;4137;-71
2023/08/07 12:06:21;;;;;;;;;;;;;;;21.59;58.12;99981.34;5062151;28;4147;-71
2023/08/07 12:08:48;;;;;;;;;;;;;;;21.59;57.95;99993.59;5061589;28;4161;-72
2023/08/07 12:11:15;;;;;;;;;;;;;;;21.59;58.05;99987.84;5063119;28;4154;-72
2023/08/07 12:13:41;;;;;;;;;;;;;;;21.59;58.38;99981.34;5061704;28;4134;-71
2023/08/07 12:16:15;;;;;;;;;;;;;;;21.58;58.30;99997.91;5032476;28;4076;-71
2023/08/07 12:18:45;;;;;;;;;;;;;;;21.60;58.24;100000.09;5060894;28;4098;-71
2023/08/07 12:21:13;;;;;;;;;;;;;;;21.58;58.14;99997.91;5062611;28;3979;-71
2023/08/07 12:23:40;;;;;;;;;;;;;;;21.59;58.28;100001.50;5061629;28;4525;-71
2023/08/07 12:26:09;;;;;;;;;;;;;;;21.58;58.27;100006.53;5033852;28;4034;-71
2023/08/07 12:28:35;;;;;;;;;;;;;;;21.59;58.05;100010.16;5061475;28;4199;-71
2023/08/07 12:31:02;;;;;;;;;;;;;;;21.58;58.26;100018.06;5033408;28;4383;-71
2023/08/07 12:33:28;;;;;;;;;;;;;;;21.59;58.02;100016.63;5061975;28;4084;-72
2023/08/07 12:35:56;;;;;;;;;;;;;;;21.58;58.32;100015.19;5060835;28;5542;-71
2023/08/07 12:38:22;;;;;;;;;;;;;;;21.58;58.24;100009.41;5061812;28;4373;-71
2023/08/07 12:40:48;;;;;;;;;;;;;;;21.59;58.20;100022.41;5060646;28;4084;-72
2023/08/07 12:43:15;;;;;;;;;;;;;;;21.60;58.08;100023.88;5060938;28;4332;-72
2023/08/07 12:45:41;;;;;;;;;;;;;;;21.60;58.27;100043.28;5060597;28;4265;-71
2023/08/07 12:48:11;;;;;;;;;;;;;;;21.60;58.40;100063.47;5062099;28;4555;-71
2023/08/07 12:50:37;;;;;;;;;;;;;;;21.60;57.91;100055.56;5062177;28;4211;-72
2023/08/07 12:53:03;;;;;;;;;;;;;;;21.60;58.16;100069.97;5062045;28;4127;-72
2023/08/07 12:55:30;;;;;;;;;;;;;;;21.60;58.19;100067.09;5060617;28;4348;-72